< < Back
Terminal Aerodrome Forecast


Current Version              Previous Versions:   1  2  3  4  5  6  7  8  9  

Terminal Aerodrome Forecast

871
FTUS42 KCAE 240531
TAFAGS
TAF
KAGS 240531Z 2406/2506 VRB03KT P6SM SCT080
     FM241500 22006KT P6SM SCT050=

Latest METAR

692
SAUS70 KWBC 241500 RRM
MTRAGS
METAR KAGS 241453Z 12004KT 10SM CLR 24/15 A3015 RMK AO2 SLP209 T02440150
50009


USA.gov is the U.S. government's official web portal to all federal, state and local government web resources and services.